createdAt,value
2017-12-25T00:00:06.154Z,3.40
2017-12-25T00:02:32.183Z,3.10
2017-12-25T00:04:58.197Z,3.40
2017-12-25T00:07:24.260Z,2.60
2017-12-25T00:09:50.281Z,3.17
2017-12-25T00:12:16.331Z,3.97
2017-12-25T00:14:42.389Z,3.23
2017-12-25T00:17:08.443Z,2.97
2017-12-25T00:19:34.468Z,3.40
2017-12-25T00:22:00.531Z,3.63
2017-12-25T00:24:26.629Z,3.90
2017-12-25T00:26:53.020Z,3.13
2017-12-25T00:29:18.992Z,4.40
2017-12-25T00:31:45.037Z,4.73
2017-12-25T00:34:14.266Z,4.57
2017-12-25T00:36:40.408Z,3.60
2017-12-25T00:39:06.410Z,4.47
2017-12-25T00:41:32.477Z,4.07
2017-12-25T00:43:58.902Z,4.50
2017-12-25T00:46:24.910Z,4.50
2017-12-25T00:48:50.967Z,5.63
2017-12-25T00:51:17.144Z,5.33
2017-12-25T00:53:43.251Z,5.00
2017-12-25T00:56:09.308Z,3.97
2017-12-25T00:58:35.320Z,4.90
2017-12-25T01:01:01.350Z,5.80
2017-12-25T01:03:27.388Z,5.43
2017-12-25T01:05:53.827Z,5.87
2017-12-25T01:08:19.858Z,5.30
2017-12-25T01:10:45.890Z,6.07
2017-12-25T01:13:11.933Z,5.00
2017-12-25T01:15:37.993Z,5.30
2017-12-25T01:18:04.026Z,6.87
2017-12-25T01:20:30.299Z,6.23
2017-12-25T01:22:58.347Z,6.60
2017-12-25T01:25:24.959Z,6.40
2017-12-25T01:37:38.605Z,5.40
2017-12-25T01:40:06.899Z,6.70
2017-12-25T01:42:33.057Z,6.70
2017-12-25T01:45:13.276Z,7.40
2017-12-25T01:47:42.188Z,7.37
2017-12-25T01:50:19.888Z,7.03
2017-12-25T01:52:48.492Z,6.80
2017-12-25T01:55:15.538Z,6.73
2017-12-25T02:01:02.548Z,6.97
2017-12-25T02:03:40.236Z,5.70
2017-12-25T02:06:19.999Z,7.00
2017-12-25T02:08:47.026Z,6.80
2017-12-25T02:11:15.301Z,6.87
2017-12-25T02:13:46.516Z,6.40
2017-12-25T02:16:15.475Z,6.50
2017-12-25T02:18:53.547Z,6.80
2017-12-25T02:21:30.759Z,6.20
2017-12-25T02:23:58.718Z,6.90
2017-12-25T02:26:27.127Z,7.33
2017-12-25T02:28:54.139Z,7.30
2017-12-25T02:31:22.703Z,6.03
2017-12-25T02:33:49.837Z,7.23
2017-12-25T02:36:17.010Z,7.67
2017-12-25T02:38:44.472Z,6.20
2017-12-25T02:41:21.575Z,7.67
2017-12-25T02:43:49.575Z,7.30
2017-12-25T02:46:16.645Z,7.43
2017-12-25T02:48:43.995Z,6.10
2017-12-25T02:51:23.155Z,6.93
2017-12-25T02:53:51.724Z,5.47
2017-12-25T02:56:17.782Z,5.73
2017-12-25T02:58:43.851Z,7.40
2017-12-25T03:01:09.905Z,6.00
2017-12-25T03:03:35.909Z,6.90
2017-12-25T03:06:01.947Z,6.90
2017-12-25T03:08:27.976Z,7.40
2017-12-25T03:10:54.445Z,7.30
2017-12-25T03:13:20.530Z,6.73
2017-12-25T03:15:46.569Z,7.30
2017-12-25T03:18:12.589Z,6.23
2017-12-25T03:20:38.623Z,7.13
2017-12-25T03:23:04.641Z,6.37
2017-12-25T03:25:30.630Z,5.93
2017-12-25T03:27:56.676Z,6.30
2017-12-25T03:30:22.674Z,6.17
2017-12-25T03:32:49.086Z,5.57
2017-12-25T03:35:15.124Z,5.23
2017-12-25T03:37:41.180Z,6.00
2017-12-25T03:40:07.182Z,7.07
2017-12-25T03:42:33.181Z,6.43
2017-12-25T03:44:59.204Z,6.43
2017-12-25T03:47:25.205Z,7.33
2017-12-25T03:49:51.225Z,6.77
2017-12-25T03:52:17.278Z,6.93
2017-12-25T03:54:43.337Z,7.17
2017-12-25T03:57:09.369Z,6.90
2017-12-25T03:59:35.792Z,6.87
2017-12-25T04:02:01.778Z,6.20
2017-12-25T04:04:27.805Z,6.50
2017-12-25T04:06:53.830Z,6.50
2017-12-25T04:09:19.788Z,6.13
2017-12-25T04:11:45.852Z,6.20
2017-12-25T04:14:11.868Z,6.93
2017-12-25T04:16:37.900Z,6.70
2017-12-25T04:19:03.909Z,6.70
2017-12-25T04:21:29.949Z,5.60
2017-12-25T04:23:55.965Z,5.90
2017-12-25T04:26:21.991Z,6.27
2017-12-25T04:28:48.035Z,6.60
2017-12-25T04:31:14.062Z,5.63
2017-12-25T04:33:40.117Z,6.70
2017-12-25T04:36:06.097Z,6.17
2017-12-25T04:38:32.131Z,5.77
2017-12-25T04:40:58.217Z,6.23
2017-12-25T04:43:24.273Z,5.70
2017-12-25T04:45:50.318Z,5.80
2017-12-25T04:48:16.804Z,6.20
2017-12-25T04:50:42.853Z,5.57
2017-12-25T04:53:08.893Z,6.03
2017-12-25T04:55:34.945Z,6.30
2017-12-25T04:58:00.977Z,6.30
2017-12-25T05:00:27.017Z,6.30
2017-12-25T05:02:53.013Z,5.40
2017-12-25T05:05:19.382Z,6.23
2017-12-25T05:07:45.406Z,6.40
2017-12-25T05:10:11.453Z,6.73
2017-12-25T05:12:37.506Z,7.50
2017-12-25T05:15:03.619Z,7.07
2017-12-25T05:17:29.658Z,6.60
2017-12-25T05:19:55.633Z,6.77
2017-12-25T05:22:21.682Z,7.77
2017-12-25T05:24:47.701Z,9.77
2017-12-25T05:27:13.752Z,6.60
2017-12-25T05:29:39.773Z,7.07
2017-12-25T05:32:05.808Z,7.27
2017-12-25T05:34:31.840Z,6.47
2017-12-25T05:36:58.181Z,6.27
2017-12-25T05:39:24.187Z,7.30
2017-12-25T05:41:50.265Z,6.67
2017-12-25T05:44:16.304Z,8.40
2017-12-25T05:46:42.289Z,6.33
2017-12-25T05:49:08.314Z,7.63
2017-12-25T05:51:34.364Z,6.73
2017-12-25T05:54:00.377Z,8.77
2017-12-25T05:56:26.413Z,7.23
2017-12-25T05:58:52.949Z,6.77
2017-12-25T06:01:19.012Z,8.23
2017-12-25T06:03:45.058Z,7.70
2017-12-25T06:06:11.077Z,7.60
2017-12-25T06:08:37.073Z,8.30
2017-12-25T06:11:03.126Z,8.60
2017-12-25T06:13:29.144Z,9.83
2017-12-25T06:15:55.166Z,8.33
2017-12-25T06:18:21.197Z,8.20
2017-12-25T06:20:47.199Z,8.77
2017-12-25T06:23:13.220Z,9.60
2017-12-25T06:25:39.662Z,9.50
2017-12-25T06:28:05.678Z,8.57
2017-12-25T06:30:31.941Z,8.73
2017-12-25T06:32:57.906Z,10.43
2017-12-25T06:35:23.861Z,9.80
2017-12-25T06:37:49.885Z,10.67
2017-12-25T06:40:15.927Z,9.73
2017-12-25T06:42:42.321Z,11.13
2017-12-25T06:45:08.366Z,9.90
2017-12-25T06:47:34.356Z,10.30
2017-12-25T06:50:00.437Z,9.70
2017-12-25T06:52:26.505Z,8.90
2017-12-25T06:54:52.482Z,9.63
2017-12-25T06:57:18.569Z,11.80
2017-12-25T06:59:44.654Z,9.13
2017-12-25T07:02:10.672Z,11.00
2017-12-25T07:04:37.177Z,12.40
2017-12-25T07:07:03.184Z,12.87
2017-12-25T07:09:29.209Z,12.37
2017-12-25T07:11:55.271Z,10.43
2017-12-25T07:14:21.308Z,9.30
2017-12-25T07:16:47.322Z,10.57
2017-12-25T07:19:13.324Z,12.10
2017-12-25T07:21:39.360Z,10.20
2017-12-25T07:24:05.377Z,9.17
2017-12-25T07:26:31.462Z,11.80
2017-12-25T07:28:57.496Z,11.87
2017-12-25T07:31:23.861Z,11.10
2017-12-25T07:33:49.908Z,10.93
2017-12-25T07:36:15.944Z,9.30
2017-12-25T07:38:42.004Z,10.67
2017-12-25T07:41:08.061Z,10.90
2017-12-25T07:43:34.080Z,10.87
2017-12-25T07:46:00.095Z,10.30
2017-12-25T07:48:26.148Z,11.47
2017-12-25T07:50:52.217Z,11.30
2017-12-25T07:53:18.268Z,11.20
2017-12-25T07:55:44.292Z,11.10
2017-12-25T07:58:10.326Z,10.50
2017-12-25T08:00:36.322Z,12.93
2017-12-25T08:03:02.280Z,11.27
2017-12-25T08:05:28.329Z,13.60
2017-12-25T08:07:54.681Z,13.60
2017-12-25T08:10:20.769Z,12.10
2017-12-25T08:12:46.792Z,23.67
2017-12-25T08:15:12.861Z,25.00
2017-12-25T08:17:38.899Z,11.43
2017-12-25T08:20:04.954Z,12.37
2017-12-25T08:22:30.989Z,11.13
2017-12-25T08:24:57.041Z,10.40
2017-12-25T08:27:23.093Z,10.30
2017-12-25T08:29:49.513Z,11.07
2017-12-25T08:32:15.463Z,11.13
2017-12-25T08:34:41.461Z,10.30
2017-12-25T08:37:07.523Z,11.43
2017-12-25T08:39:33.513Z,10.97
2017-12-25T08:41:59.526Z,10.80
2017-12-25T08:44:25.589Z,10.80
2017-12-25T08:46:51.628Z,11.70
2017-12-25T08:49:17.677Z,16.50
2017-12-25T08:51:43.724Z,18.00
2017-12-25T08:54:09.738Z,18.27
2017-12-25T08:56:35.762Z,12.83
2017-12-25T08:59:01.840Z,12.17
2017-12-25T09:01:27.874Z,12.97
2017-12-25T09:03:53.937Z,14.43
2017-12-25T09:06:19.998Z,11.17
2017-12-25T09:08:46.033Z,11.70
2017-12-25T09:11:12.053Z,11.93
2017-12-25T09:13:38.103Z,14.17
2017-12-25T09:16:04.146Z,10.87
2017-12-25T09:18:30.255Z,10.40
2017-12-25T09:20:56.310Z,13.83
2017-12-25T09:23:22.345Z,11.17
2017-12-25T09:25:48.381Z,9.10
2017-12-25T09:28:14.439Z,9.10
2017-12-25T09:30:40.509Z,11.87
2017-12-25T09:33:06.593Z,10.23
2017-12-25T09:35:32.624Z,9.70
2017-12-25T09:37:58.693Z,10.20
2017-12-25T09:40:24.726Z,10.57
2017-12-25T09:42:50.777Z,9.60
2017-12-25T09:45:16.871Z,8.60
2017-12-25T09:47:42.981Z,8.50
2017-12-25T09:50:09.002Z,8.17
2017-12-25T09:52:35.097Z,7.90
2017-12-25T09:55:01.164Z,9.20
2017-12-25T09:57:27.249Z,9.20
2017-12-25T09:59:57.197Z,7.97
2017-12-25T10:02:24.221Z,6.93
2017-12-25T10:04:50.309Z,8.30
2017-12-25T10:07:16.328Z,7.30
2017-12-25T10:09:42.370Z,6.70
2017-12-25T10:12:08.441Z,6.10
2017-12-25T10:14:34.553Z,7.07
2017-12-25T10:17:00.682Z,7.40
2017-12-25T10:19:26.717Z,6.20
2017-12-25T10:21:52.763Z,6.40
2017-12-25T10:24:18.758Z,6.00
2017-12-25T10:26:45.339Z,6.10
2017-12-25T10:29:11.509Z,6.57
2017-12-25T10:31:37.721Z,6.00
2017-12-25T10:34:03.777Z,5.90
2017-12-25T10:36:29.810Z,6.73
2017-12-25T10:38:55.825Z,6.53
2017-12-25T10:41:21.869Z,23.43
2017-12-25T10:43:47.889Z,11.60
2017-12-25T10:46:14.186Z,9.60
2017-12-25T10:48:40.190Z,9.47
2017-12-25T10:51:06.220Z,7.27
2017-12-25T10:53:32.225Z,66.67
2017-12-25T10:55:58.237Z,8.23
2017-12-25T10:58:24.325Z,11.50
2017-12-25T11:00:53.555Z,10.57
2017-12-25T11:03:19.625Z,10.37
2017-12-25T11:05:45.744Z,10.30
2017-12-25T11:08:11.748Z,10.83
2017-12-25T11:10:37.753Z,10.63
2017-12-25T11:13:04.109Z,10.00
2017-12-25T11:15:32.622Z,10.73
2017-12-25T11:17:58.634Z,8.70
2017-12-25T11:20:24.770Z,9.60
2017-12-25T11:22:50.812Z,8.87
2017-12-25T11:25:16.877Z,8.93
2017-12-25T11:27:42.984Z,10.10
2017-12-25T11:30:09.258Z,9.67
2017-12-25T11:32:35.289Z,8.70
2017-12-25T11:35:01.315Z,10.03
2017-12-25T11:37:27.385Z,9.50
2017-12-25T11:39:53.531Z,11.50
2017-12-25T11:42:19.499Z,9.60
2017-12-25T11:44:45.509Z,10.00
2017-12-25T11:47:11.540Z,11.30
2017-12-25T11:49:37.774Z,43.10
2017-12-25T11:52:03.820Z,13.27
2017-12-25T11:54:29.830Z,10.93
2017-12-25T11:56:55.862Z,11.17
2017-12-25T11:59:21.925Z,12.10
2017-12-25T12:01:48.014Z,10.87
2017-12-25T12:04:14.015Z,12.50
2017-12-25T12:06:40.057Z,10.17
2017-12-25T12:09:06.077Z,14.73
2017-12-25T12:11:32.125Z,12.63
2017-12-25T12:13:58.173Z,12.50
2017-12-25T12:19:16.980Z,11.00
2017-12-25T12:21:43.022Z,9.80
2017-12-25T12:24:09.070Z,11.47
2017-12-25T12:26:35.097Z,11.33
2017-12-25T12:29:01.152Z,9.67
2017-12-25T12:31:27.203Z,10.43
2017-12-25T12:33:53.243Z,13.60
2017-12-25T12:36:19.355Z,13.70
2017-12-25T12:38:45.414Z,12.97
2017-12-25T12:41:11.452Z,18.20
2017-12-25T12:43:37.497Z,19.77
2017-12-25T12:46:03.589Z,39.63
2017-12-25T12:48:29.604Z,13.90
2017-12-25T12:50:55.644Z,14.27
2017-12-25T12:53:21.695Z,15.50
2017-12-25T12:55:47.709Z,50.30
2017-12-25T12:58:13.767Z,14.57
2017-12-25T13:00:39.818Z,16.37
2017-12-25T13:03:05.911Z,13.43
2017-12-25T13:05:31.986Z,9.87
2017-12-25T13:07:58.074Z,11.90
2017-12-25T13:10:24.130Z,16.17
2017-12-25T13:12:50.162Z,27.23
2017-12-25T13:15:16.212Z,14.07
2017-12-25T13:17:42.284Z,16.67
2017-12-25T13:20:08.352Z,15.90
2017-12-25T13:22:34.373Z,14.67
2017-12-25T13:25:00.429Z,16.50
2017-12-25T13:27:26.485Z,15.57
2017-12-25T13:29:52.546Z,13.53
2017-12-25T13:32:18.604Z,15.87
2017-12-25T13:34:44.623Z,12.03
2017-12-25T13:37:10.738Z,20.20
2017-12-25T13:39:36.783Z,14.17
2017-12-25T13:42:02.829Z,10.83
2017-12-25T13:44:28.908Z,14.50
2017-12-25T13:46:54.898Z,14.63
2017-12-25T13:49:20.977Z,13.03
2017-12-25T13:51:47.062Z,12.60
2017-12-25T13:54:13.276Z,15.10
2017-12-25T13:56:39.329Z,18.17
2017-12-25T13:59:05.479Z,14.70
2017-12-25T14:01:31.830Z,17.50
2017-12-25T14:03:57.881Z,13.10
2017-12-25T14:06:23.901Z,12.90
2017-12-25T14:08:50.020Z,17.60
2017-12-25T14:11:20.785Z,17.37
2017-12-25T14:13:46.823Z,17.10
2017-12-25T14:16:12.854Z,14.70
2017-12-25T14:18:38.899Z,15.27
2017-12-25T14:21:04.922Z,15.10
2017-12-25T14:23:30.929Z,17.90
2017-12-25T14:25:56.977Z,16.07
2017-12-25T14:28:23.025Z,15.27
2017-12-25T14:30:49.048Z,13.97
2017-12-25T14:33:15.111Z,14.63
2017-12-25T14:35:41.178Z,13.73
2017-12-25T14:38:07.223Z,13.07
2017-12-25T14:40:33.275Z,13.93
2017-12-25T14:42:59.300Z,15.23
2017-12-25T14:45:25.370Z,13.53
2017-12-25T14:47:51.400Z,14.30
2017-12-25T14:50:17.533Z,15.40
2017-12-25T14:52:43.574Z,14.37
2017-12-25T14:55:09.602Z,14.30
2017-12-25T14:57:35.641Z,14.73
2017-12-25T15:00:01.740Z,14.60
2017-12-25T15:02:27.816Z,14.83
2017-12-25T15:04:53.864Z,15.53
2017-12-25T15:07:19.846Z,12.90
2017-12-25T15:09:45.886Z,13.07
2017-12-25T15:12:11.913Z,14.70
2017-12-25T15:14:37.981Z,14.43
2017-12-25T15:17:04.070Z,15.90
2017-12-25T15:19:30.223Z,16.73
2017-12-25T15:21:56.306Z,15.97
2017-12-25T15:24:22.393Z,16.47
2017-12-25T15:26:48.629Z,14.73
2017-12-25T15:29:14.669Z,16.57
2017-12-25T15:31:40.700Z,16.63
2017-12-25T15:34:06.794Z,15.83
2017-12-25T15:36:32.881Z,15.07
2017-12-25T15:38:58.993Z,18.40
2017-12-25T15:41:25.048Z,17.17
2017-12-25T15:43:51.330Z,18.50
2017-12-25T15:46:17.430Z,17.13
2017-12-25T15:48:43.465Z,20.73
2017-12-25T15:51:09.538Z,25.13
2017-12-25T15:53:35.631Z,20.23
2017-12-25T15:56:02.617Z,19.20
2017-12-25T15:58:28.680Z,18.20
2017-12-25T16:00:54.745Z,18.93
2017-12-25T16:03:20.742Z,19.30
2017-12-25T16:05:46.830Z,18.53
2017-12-25T16:08:12.939Z,19.00
2017-12-25T16:10:38.992Z,20.13
2017-12-25T16:13:05.249Z,17.90
2017-12-25T16:15:31.374Z,19.37
2017-12-25T16:17:57.386Z,20.27
2017-12-25T16:20:23.517Z,19.83
2017-12-25T16:22:49.577Z,20.33
2017-12-25T16:25:15.718Z,20.33
2017-12-25T16:27:41.816Z,22.17
2017-12-25T16:30:07.882Z,21.33
2017-12-25T16:32:38.706Z,22.07
2017-12-25T16:35:05.313Z,19.37
2017-12-25T16:37:32.102Z,19.50
2017-12-25T16:39:58.567Z,23.50
2017-12-25T16:42:25.500Z,23.37
2017-12-25T16:44:51.876Z,24.00
2017-12-25T16:47:18.009Z,21.63
2017-12-25T16:49:44.138Z,22.70
2017-12-25T16:52:10.311Z,23.90
2017-12-25T16:54:36.536Z,22.40
2017-12-25T16:57:02.678Z,23.87
2017-12-25T16:59:28.933Z,22.60
2017-12-25T17:01:55.299Z,23.17
2017-12-25T17:04:21.399Z,21.60
2017-12-25T17:06:47.538Z,23.77
2017-12-25T17:09:13.618Z,20.00
2017-12-25T17:11:39.713Z,21.93
2017-12-25T17:14:05.814Z,23.17
2017-12-25T17:16:31.879Z,23.93
2017-12-25T17:18:57.944Z,25.27
2017-12-25T17:21:24.047Z,22.20
2017-12-25T17:23:50.093Z,21.67
2017-12-25T17:26:16.183Z,23.43
2017-12-25T17:28:42.331Z,21.13
2017-12-25T17:31:08.418Z,22.70
2017-12-25T17:33:34.538Z,20.40
2017-12-25T17:36:00.614Z,20.37
2017-12-25T17:38:26.650Z,21.60
2017-12-25T17:40:52.771Z,19.70
2017-12-25T17:43:18.944Z,23.70
2017-12-25T17:45:45.112Z,20.47
2017-12-25T17:48:11.220Z,19.90
2017-12-25T17:50:37.466Z,19.60
2017-12-25T17:53:03.511Z,18.50
2017-12-25T17:55:29.606Z,22.03
2017-12-25T17:57:55.705Z,20.40
2017-12-25T18:00:21.876Z,19.60
2017-12-25T18:02:47.970Z,18.37
2017-12-25T18:05:14.061Z,20.77
2017-12-25T18:07:40.421Z,21.10
2017-12-25T18:10:06.513Z,21.77
2017-12-25T18:12:32.693Z,23.93
2017-12-25T18:14:58.806Z,18.90
2017-12-25T18:17:24.881Z,20.47
2017-12-25T18:19:50.944Z,19.90
2017-12-25T18:22:17.005Z,20.17
2017-12-25T18:24:43.167Z,17.83
2017-12-25T18:27:09.232Z,19.47
2017-12-25T18:29:35.342Z,19.03
2017-12-25T18:32:01.467Z,19.37
2017-12-25T18:34:27.537Z,20.13
2017-12-25T18:36:53.675Z,18.40
2017-12-25T18:39:19.766Z,22.17
2017-12-25T18:41:45.927Z,19.83
2017-12-25T18:44:12.079Z,19.40
2017-12-25T18:46:38.185Z,17.70
2017-12-25T18:49:04.295Z,16.97
2017-12-25T18:51:30.357Z,22.73
2017-12-25T18:53:56.441Z,18.47
2017-12-25T18:56:22.654Z,18.53
2017-12-25T18:58:48.726Z,19.30
2017-12-25T19:01:14.835Z,18.67
2017-12-25T19:03:40.947Z,18.20
2017-12-25T19:06:07.151Z,18.80
2017-12-25T19:08:33.210Z,18.30
2017-12-25T19:10:59.395Z,18.67
2017-12-25T19:13:25.513Z,20.17
2017-12-25T19:15:51.652Z,20.60
2017-12-25T19:18:17.749Z,19.70
2017-12-25T19:20:43.874Z,20.10
2017-12-25T19:23:10.001Z,19.17
2017-12-25T19:25:36.082Z,17.03
2017-12-25T19:28:02.234Z,19.37
2017-12-25T19:30:28.335Z,17.77
2017-12-25T19:32:54.415Z,19.20
2017-12-25T19:35:20.578Z,18.70
2017-12-25T19:37:46.786Z,19.13
2017-12-25T19:40:12.993Z,19.13
2017-12-25T19:42:39.063Z,22.20
2017-12-25T19:45:05.362Z,17.67
2017-12-25T19:47:31.438Z,21.70
2017-12-25T19:49:57.567Z,23.17
2017-12-25T19:52:23.689Z,20.33
2017-12-25T19:54:49.953Z,18.70
2017-12-25T19:57:16.035Z,20.57
2017-12-25T19:59:42.428Z,19.37
2017-12-25T20:02:08.493Z,19.00
2017-12-25T20:04:34.649Z,20.20
2017-12-25T20:07:00.860Z,20.67
2017-12-25T20:09:26.923Z,19.60
2017-12-25T20:11:53.152Z,19.30
2017-12-25T20:14:19.249Z,20.40
2017-12-25T20:16:45.459Z,19.43
2017-12-25T20:19:11.553Z,23.30
2017-12-25T20:21:37.717Z,21.53
2017-12-25T20:24:03.924Z,22.50
2017-12-25T20:26:29.986Z,22.27
2017-12-25T20:28:56.162Z,21.47
2017-12-25T20:31:22.326Z,23.10
2017-12-25T20:33:48.468Z,21.17
2017-12-25T20:36:14.547Z,23.17
2017-12-25T20:38:40.596Z,23.30
2017-12-25T20:41:06.732Z,21.33
2017-12-25T20:43:32.826Z,21.30
2017-12-25T20:45:59.077Z,25.37
2017-12-25T20:48:25.195Z,23.10
2017-12-25T20:50:51.267Z,24.77
2017-12-25T20:53:17.427Z,21.50
2017-12-25T20:55:43.671Z,23.30
2017-12-25T20:58:09.861Z,24.63
2017-12-25T21:00:35.920Z,23.93
2017-12-25T21:03:02.068Z,23.53
2017-12-25T21:05:28.149Z,22.07
2017-12-25T21:07:54.222Z,22.80
2017-12-25T21:10:20.306Z,23.47
2017-12-25T21:12:46.362Z,24.17
2017-12-25T21:15:12.467Z,24.60
2017-12-25T21:17:38.560Z,24.27
2017-12-25T21:20:04.622Z,26.93
2017-12-25T21:22:30.733Z,22.83
2017-12-25T21:24:56.861Z,26.43
2017-12-25T21:27:22.911Z,24.13
2017-12-25T21:29:48.994Z,25.30
2017-12-25T21:32:15.331Z,22.37
2017-12-25T21:34:41.450Z,27.93
2017-12-25T21:37:07.567Z,27.87
2017-12-25T21:39:33.726Z,33.90
2017-12-25T21:42:00.068Z,27.37
2017-12-25T21:44:26.135Z,23.77
2017-12-25T21:46:52.251Z,22.90
2017-12-25T21:49:18.323Z,23.30
2017-12-25T21:51:44.495Z,23.93
2017-12-25T21:54:10.660Z,26.60
2017-12-25T21:56:36.785Z,24.87
2017-12-25T21:59:02.880Z,23.87
2017-12-25T22:01:29.008Z,25.10
2017-12-25T22:03:55.140Z,22.90
2017-12-25T22:06:21.310Z,23.33
2017-12-25T22:08:47.573Z,29.43
2017-12-25T22:11:14.132Z,23.17
2017-12-25T22:13:40.291Z,24.53
2017-12-25T22:16:06.416Z,23.70
2017-12-25T22:18:39.477Z,23.33
2017-12-25T22:21:05.573Z,19.77
2017-12-25T22:23:31.667Z,22.83
2017-12-25T22:25:57.773Z,27.07
2017-12-25T22:28:23.885Z,22.50
2017-12-25T22:30:50.055Z,25.00
2017-12-25T22:33:16.185Z,24.33
2017-12-25T22:35:42.682Z,23.23
2017-12-25T22:38:08.832Z,20.40
2017-12-25T22:40:35.001Z,22.53
2017-12-25T22:43:01.382Z,24.67
2017-12-25T22:45:27.531Z,22.70
2017-12-25T22:47:53.722Z,22.33
2017-12-25T22:50:20.014Z,24.23
2017-12-25T22:52:46.121Z,24.60
2017-12-25T22:55:26.725Z,22.67
2017-12-25T22:57:52.856Z,21.30
2017-12-25T23:00:18.976Z,23.83
2017-12-25T23:02:45.094Z,22.07
2017-12-25T23:05:11.222Z,22.70
2017-12-25T23:07:37.479Z,22.87
2017-12-25T23:10:03.635Z,20.80
2017-12-25T23:12:30.012Z,20.53
2017-12-25T23:14:56.154Z,22.40
2017-12-25T23:17:22.269Z,20.50
2017-12-25T23:19:48.331Z,24.77
2017-12-25T23:22:14.456Z,25.57
2017-12-25T23:24:40.569Z,28.70
2017-12-25T23:27:07.139Z,24.27
2017-12-25T23:29:33.304Z,25.97
